ELNO2: N. Canadian River, El Reno, OK

Data processed at Sat Nov 17 2018 22:02


All information presented herein is the property of the government of the United States of America and may be revised or deleted at any time without prior notice.
Dissemination of this information without the expressed written consent of the Public Affairs Office, Tulsa District U.S. Army Corps of Engineers is strictly prohibited.
These data are gathered electronically and, as presented, have not undergone any form of quality control. These data are not guaranteed to be valid or correct.
Go to home page.
Go to station list.
Go to home page.

Upstream stations:

Downstream station:
Previous Day
Next Day
Current Day
    
SHEF ID:       ELNO2     North Canadian River near El Ren
STATION TYPE:  

               PRECIP     STAGE  STAGE(2)  RIV-FLOW  WTR-TEMP   CONDUCT  BAT-LOAD
                   in        ft        ft       cfs         F   umho/cm      volt
              Ccp-Rev   Ccp-Rev   Ccp-Rev   Ccp-Rev   Ccp-Rev   Ccp-Rev   Ccp-Rev
(US/Central)
11/17 00:00      0.00      6.74      ----       646     46.38      1620     12.65
11/17 01:00      0.00      6.68      ----       628     46.26      1618     12.57
11/17 02:00      0.00      6.66      ----       622     46.11      1616     12.57
11/17 03:00      0.00      6.59      ----       602     46.00      1613     12.57
11/17 04:00      0.00      6.50      ----       576     45.93      1609     12.57
11/17 05:00      0.00      6.37      ----       540     45.84      1605     12.57
11/17 06:00      0.00      6.27      ----       513     45.81      1601     12.49
11/17 07:00      0.00      6.19      ----       492     45.75      1600     12.49
11/17 08:00      0.00      6.05      ----       456     45.72      1598     12.57
11/17 09:00      0.00      5.95      ----       431     45.81      1597     13.37
11/17 10:00      0.00      5.87      ----       411     46.15      1596     13.53
11/17 11:00      0.00      5.78      ----       390     46.74       861     13.68
11/17 12:00      0.00      5.71      ----       373     47.50         5     13.68
11/17 13:00      0.00      5.65      ----       360     47.93         4     13.68
11/17 14:00      0.00      5.59      ----       346     49.73         4     13.60
11/17 15:00      0.00      5.56      ----       340     48.11         2     13.60
11/17 16:00      0.00      5.48      ----       322     46.36         2     13.60
11/17 17:00      0.00      5.49      ----       325     44.06         1     13.44
11/17 18:00      0.00      5.43      ----       312     43.07         1     12.89
11/17 19:00      0.00      5.39      ----       304     41.85         1     12.65
11/17 20:00      0.00      5.41      ----       308     40.46         1     12.57
11/17 21:00      0.00      5.33      ----       292     39.43         1     12.57
11/17 22:00      ----      ----      ----      ----      ----      ----      ----
11/17 23:00      ----      ----      ----      ----      ----      ----      ----